Aviation Digital Data Service (ADDS)

Output produced by METARs form (0354 UTC 22 March 2019)
found at http://aviationweather.gov/metar/data/
 
LSZH 220320Z 23002KT CAVOK M02/M03 Q1030 NOSIG
TAF LSZH 220225Z 2203/2309 VRB03KT CAVOK TX18/2215Z TNM02/2205Z TNM01/2305Z 
     PROB30 2204/2207 4000 MIFG
       
LFSB 220330Z VRB01KT CAVOK 00/M02 Q1030 NOSIG
LFSB 220300Z AUTO 16002KT CAVOK 01/M02 Q1030 TEMPO 4000 MIFG
TAF LFSB 212300Z 2200/2224 VRB03KT CAVOK 
     PROB30 
     TEMPO 2202/2207 4000 MIFG
       
LSZG 220320Z AUTO 08001KT 3000 BR NSC M02/M02 Q1030
LSZB 220320Z AUTO VRB02KT 5000 NCD M03/M04 Q1030
LSGG 220320Z AUTO 30002KT CAVOK M00/M03 Q1030 NOSIG
TAF LSGG 220225Z 2203/2309 VRB03KT CAVOK TX16/2215Z TNM01/2206Z TN01/2306Z
       
LSZR 220320Z AUTO VRB01KT CAVOK 00/M01 Q1030
LSGS 220320Z AUTO 08005KT CAVOK 02/M03 Q1031
LSZA 220320Z AUTO 01002KT CAVOK 02/M00 Q1031
EDNY 220320Z AUTO 02003KT 9999 // NCD M01/M04 Q1030
TAF EDNY 212300Z 2200/2224 05005KT CAVOK 
     BECMG 2206/2208 VRB02KT 
     BECMG 2210/2212 23005KT 
     BECMG 2216/2218 VRB02KT
       
EDDS 220320Z 25001KT CAVOK 00/M03 Q1030
TAF EDDS 212300Z 2200/2224 VRB03KT CAVOK 
     TEMPO 2211/2217 07005KT
       
LOWI 220320Z AUTO VRB01KT 9999 NSC M01/M03 Q1031
TAF LOWI 212315Z 2200/2224 27004KT CAVOK TX19/2215Z TNM02/2205Z 
     BECMG 2210/2212 09009KT 
     BECMG 2217/2219 VRB02KT
       
EDDM 220320Z 06003KT CAVOK M02/M04 Q1030 NOSIG
TAF EDDM 212300Z 2200/2306 VRB02KT CAVOK 
     BECMG 2207/2209 08006KT 
     BECMG 2216/2218 VRB02KT 
     PROB30 
     TEMPO 2303/2306 4000 BCFG
       
LFMD 220330Z AUTO VRB05KT 9999 NCD 05/M01 Q1026 NOSIG
LFMD 220300Z AUTO VRB04KT 9999 NCD 05/M01 Q1026 NOSIG
TAF LFMD 220200Z 2203/2303 36006KT CAVOK 
     BECMG 2209/2211 16006KT 
     BECMG 2216/2218 VRB04KT
       
LFLL 220323Z 15004KT 8000 NSC 04/00 Q1029 NOSIG
LFLL 220300Z 16005KT 8000 NSC 05/00 Q1029 NOSIG
TAF LFLL 212300Z 2200/2306 VRB02KT CAVOK 
     TEMPO 2213/2218 36005KT
       
LIMC 220320Z 01006KT CAVOK 00/M03 Q1031 NOSIG
TAF LIMC 212300Z 2200/2306 VRB05KT CAVOK
       
LFPB 220330Z AUTO 01002KT 1200 0650 R27/P2000 R09/1100D R07/P2000U BCFG FEW003 05/04 Q1029 TEMPO 0400 FG VV///
LFPB 220300Z AUTO 00000KT 2000 0350 R27/P2000 R09/0800D R07/0375D BCFG NSC 06/04 Q1029 TEMPO 0400 FG VV///
TAF LFPB 212300Z 2200/2224 02005KT 6000 NSC 
     TEMPO 2200/2209 4000 BR 
     PROB30 
     TEMPO 2202/2208 0400 FG VV/// 
     BECMG 2208/2210 CAVOK
       
LIPZ 220320Z 01007KT CAVOK 06/M01 Q1030 NOSIG
TAF LIPZ 212300Z 2200/2306 03010KT CAVOK